createdAt,value
2022-08-23T00:02:06.280Z,59.94
2022-08-23T00:11:04.457Z,999.00
2022-08-23T00:31:05.085Z,999.00
2022-08-23T00:51:08.233Z,999.00
2022-08-23T01:21:04.997Z,999.00
2022-08-23T01:51:04.755Z,999.00
2022-08-23T02:00:39.111Z,999.00
2022-08-23T02:10:35.235Z,999.00
2022-08-23T02:20:37.620Z,999.00
2022-08-23T02:30:35.658Z,999.00
2022-08-23T03:00:12.309Z,999.00
2022-08-23T03:00:13.811Z,999.00
2022-08-23T03:01:13.811Z,53.82
2022-08-23T03:11:08.048Z,999.00
2022-08-23T03:31:10.423Z,999.00
2022-08-23T03:41:06.779Z,999.00
2022-08-23T03:41:34.399Z,70.09
2022-08-23T03:42:34.415Z,66.39
2022-08-23T03:43:34.313Z,68.16
2022-08-23T03:44:34.322Z,64.78
2022-08-23T03:45:34.234Z,65.90
2022-08-23T03:46:34.404Z,65.42
2022-08-23T03:47:34.179Z,66.55
2022-08-23T03:48:34.199Z,65.42
2022-08-23T03:49:34.220Z,67.51
2022-08-23T03:50:34.256Z,66.23
2022-08-23T03:51:34.175Z,67.84
2022-08-23T03:52:34.139Z,65.10
2022-08-23T03:53:34.115Z,63.81
2022-08-23T03:54:34.116Z,63.97
2022-08-23T03:55:34.126Z,61.39
2022-08-23T03:56:35.138Z,68.16
2022-08-23T03:57:34.060Z,67.03
2022-08-23T03:58:34.102Z,65.74
2022-08-23T03:59:34.080Z,67.84
2022-08-23T04:00:34.056Z,67.03
2022-08-23T04:01:34.110Z,66.55
2022-08-23T04:02:34.070Z,68.64
2022-08-23T04:03:34.055Z,66.39
2022-08-23T04:04:34.002Z,64.45
2022-08-23T04:05:34.006Z,70.09
2022-08-23T04:06:34.009Z,69.77
2022-08-23T04:07:33.986Z,67.35
2022-08-23T04:08:34.154Z,64.78
2022-08-23T04:09:33.930Z,66.87
2022-08-23T04:10:33.922Z,63.65
2022-08-23T04:11:33.942Z,67.19
2022-08-23T04:12:33.930Z,65.10
2022-08-23T04:13:33.940Z,64.61
2022-08-23T04:14:33.921Z,63.00
2022-08-23T04:15:33.896Z,67.84
2022-08-23T04:16:33.876Z,61.07
2022-08-23T04:17:33.875Z,67.03
2022-08-23T04:18:33.863Z,67.03
2022-08-23T04:19:33.855Z,63.81
2022-08-23T04:20:33.837Z,63.16
2022-08-23T04:21:33.835Z,66.71
2022-08-23T04:22:33.872Z,67.35
2022-08-23T04:23:33.803Z,65.10
2022-08-23T04:24:33.799Z,66.55
2022-08-23T04:25:35.769Z,67.51
2022-08-23T04:26:33.849Z,69.13
2022-08-23T04:27:33.784Z,68.64
2022-08-23T04:28:33.764Z,69.61
2022-08-23T04:29:34.703Z,69.93
2022-08-23T04:30:33.771Z,68.96
2022-08-23T04:31:34.718Z,68.16
2022-08-23T04:32:34.325Z,69.77
2022-08-23T04:33:33.700Z,70.25
2022-08-23T04:34:33.756Z,68.16
2022-08-23T04:35:33.717Z,68.48
2022-08-23T04:36:34.579Z,68.00
2022-08-23T04:37:33.712Z,68.64
2022-08-23T04:38:33.677Z,66.71
2022-08-23T04:39:33.685Z,67.84
2022-08-23T04:40:33.619Z,68.96
2022-08-23T04:41:33.585Z,70.09
2022-08-23T04:42:33.608Z,69.45
2022-08-23T04:43:33.581Z,69.13
2022-08-23T04:44:33.552Z,68.32
2022-08-23T04:45:33.592Z,68.32
2022-08-23T04:46:33.552Z,69.13
2022-08-23T04:47:33.604Z,70.74
2022-08-23T04:48:33.553Z,70.58
2022-08-23T04:49:33.567Z,67.03
2022-08-23T04:50:33.516Z,68.64
2022-08-23T04:51:33.476Z,67.19
2022-08-23T04:52:33.506Z,68.48
2022-08-23T04:53:33.440Z,68.96
2022-08-23T04:54:33.484Z,69.77
2022-08-23T04:55:34.991Z,64.78
2022-08-23T04:56:33.441Z,70.42
2022-08-23T04:57:33.440Z,67.51
2022-08-23T04:58:33.434Z,68.16
2022-08-23T04:59:33.385Z,69.77
2022-08-23T05:00:33.388Z,67.51
2022-08-23T05:01:33.474Z,68.48
2022-08-23T05:02:33.365Z,70.25
2022-08-23T05:03:33.341Z,65.74
2022-08-23T05:04:33.377Z,65.58
2022-08-23T05:05:33.468Z,65.42
2022-08-23T05:06:33.353Z,68.80
2022-08-23T05:07:42.448Z,60.91
2022-08-23T05:08:34.325Z,67.19
2022-08-23T05:09:33.320Z,66.23
2022-08-23T05:10:33.300Z,68.64
2022-08-23T05:11:33.345Z,67.03
2022-08-23T05:12:33.273Z,66.55
2022-08-23T05:13:34.902Z,66.87
2022-08-23T05:14:33.235Z,68.64
2022-08-23T05:15:33.266Z,65.58
2022-08-23T05:16:33.305Z,68.16
2022-08-23T05:17:33.190Z,68.16
2022-08-23T05:18:33.202Z,68.64
2022-08-23T05:19:33.225Z,67.84
2022-08-23T05:20:33.203Z,68.64
2022-08-23T05:21:33.233Z,67.19
2022-08-23T05:22:33.170Z,69.93
2022-08-23T05:23:33.235Z,64.61
2022-08-23T05:24:33.150Z,67.19
2022-08-23T05:25:33.114Z,67.68
2022-08-23T05:26:33.154Z,68.32
2022-08-23T05:27:33.128Z,65.58
2022-08-23T05:28:33.137Z,66.71
2022-08-23T05:29:33.134Z,68.16
2022-08-23T05:30:33.090Z,67.35
2022-08-23T05:31:33.058Z,67.35
2022-08-23T05:32:33.749Z,68.16
2022-08-23T05:33:34.051Z,68.16
2022-08-23T05:34:33.071Z,70.09
2022-08-23T05:35:33.043Z,66.55
2022-08-23T05:36:33.028Z,66.87
2022-08-23T05:37:33.107Z,67.19
2022-08-23T05:38:33.034Z,67.84
2022-08-23T05:39:36.928Z,67.35
2022-08-23T05:40:33.266Z,68.32
